Time,TemperatureF,DewpointF,PressureIn,WindDirection,WindDirectionDegrees,WindSpeedMPH,WindSpeedGustMPH,Humidity,HourlyPrecipIn,Conditions,Clouds,dailyrainin,SoftwareType,DateUTC
2013-01-09 00:04:00,55.0,52.7,30.16,NNE,22,3.2,-999.0,92,-99.99,,,0.00,Acu-Link.com,2013-01-09 05:04:00,
2013-01-09 00:19:00,55.4,52.8,30.15,NE,45,1.7,-999.0,91,-99.99,,,0.00,Acu-Link.com,2013-01-09 05:19:00,
2013-01-09 00:34:00,55.4,52.8,30.15,East,90,2.2,-999.0,91,-99.99,,,0.00,Acu-Link.com,2013-01-09 05:34:00,
2013-01-09 00:49:00,56.1,53.2,30.15,NNE,22,3.7,-999.0,90,-99.99,,,0.00,Acu-Link.com,2013-01-09 05:49:00,
2013-01-09 01:05:00,56.1,52.9,30.14,NNE,22,3.2,-999.0,89,-99.99,,,0.00,Acu-Link.com,2013-01-09 06:05:00,
2013-01-09 01:20:00,56.1,52.9,30.14,East,90,2.7,-999.0,89,-99.99,,,0.00,Acu-Link.com,2013-01-09 06:20:00,
2013-01-09 01:36:00,55.9,52.7,30.15,North,0,3.7,-999.0,89,-99.99,,,0.00,Acu-Link.com,2013-01-09 06:36:00,
2013-01-09 01:51:00,55.9,52.7,30.14,NNE,22,3.7,-999.0,89,-99.99,,,0.00,Acu-Link.com,2013-01-09 06:51:00,
2013-01-09 02:06:00,55.6,52.7,30.13,East,90,3.2,-999.0,90,-99.99,,,0.00,Acu-Link.com,2013-01-09 07:06:00,
2013-01-09 02:22:00,55.4,52.5,30.14,East,90,1.7,-999.0,90,-99.99,,,0.00,Acu-Link.com,2013-01-09 07:22:00,
2013-01-09 02:37:00,55.6,52.7,30.13,ENE,67,2.7,-999.0,90,-99.99,,,0.00,Acu-Link.com,2013-01-09 07:37:00,
2013-01-09 02:52:00,55.4,52.5,30.13,East,90,2.7,-999.0,90,-99.99,,,0.00,Acu-Link.com,2013-01-09 07:52:00,
2013-01-09 03:08:00,55.6,52.4,30.13,NNE,22,2.7,-999.0,89,-99.99,,,0.00,Acu-Link.com,2013-01-09 08:08:00,
2013-01-09 03:23:00,55.4,52.2,30.13,NE,45,3.7,-999.0,89,-99.99,,,0.00,Acu-Link.com,2013-01-09 08:23:00,
2013-01-09 03:38:00,55.6,52.4,30.14,NE,45,3.7,-999.0,89,-99.99,,,0.00,Acu-Link.com,2013-01-09 08:38:00,
2013-01-09 03:53:00,56.3,52.5,30.13,ENE,67,4.7,-999.0,87,-99.99,,,0.00,Acu-Link.com,2013-01-09 08:53:00,
2013-01-09 04:11:00,56.5,52.7,30.13,East,90,3.7,-999.0,87,-99.99,,,0.00,Acu-Link.com,2013-01-09 09:11:00,
2013-01-09 04:27:00,57.6,52.8,30.13,NE,45,4.2,-999.0,84,-99.99,,,0.00,Acu-Link.com,2013-01-09 09:27:00,
2013-01-09 04:42:00,57.7,52.9,30.13,NNE,22,2.7,-999.0,84,-99.99,,,0.00,Acu-Link.com,2013-01-09 09:42:00,
2013-01-09 04:57:00,57.7,52.9,30.12,ENE,67,3.7,-999.0,84,-99.99,,,0.00,Acu-Link.com,2013-01-09 09:57:00,
2013-01-09 05:12:00,57.6,53.4,30.12,NE,45,1.7,-999.0,86,-99.99,,,0.00,Acu-Link.com,2013-01-09 10:12:00,
2013-01-09 05:28:00,57.4,53.6,30.13,NNE,22,1.7,-999.0,87,-99.99,,,0.00,Acu-Link.com,2013-01-09 10:28:00,
2013-01-09 05:43:00,57.2,53.4,30.13,NNE,22,2.2,-999.0,87,-99.99,,,0.00,Acu-Link.com,2013-01-09 10:43:00,
2013-01-09 05:58:00,57.2,53.4,30.14,ENE,67,3.7,-999.0,87,-99.99,,,0.00,Acu-Link.com,2013-01-09 10:58:00,
2013-01-09 06:13:00,57.4,53.9,30.14,ENE,67,3.2,-999.0,88,-99.99,,,0.00,Acu-Link.com,2013-01-09 11:13:00,
2013-01-09 06:28:00,57.0,54.1,30.14,NNE,22,3.2,-999.0,90,-99.99,,,0.00,Acu-Link.com,2013-01-09 11:28:00,
2013-01-09 06:44:00,57.6,55.0,30.15,NE,45,3.7,-999.0,91,-99.99,,,0.00,Acu-Link.com,2013-01-09 11:44:00,
2013-01-09 06:59:00,57.7,55.1,30.16,NE,45,3.7,-999.0,91,-99.99,,,0.00,Acu-Link.com,2013-01-09 11:59:00,
2013-01-09 07:15:00,57.6,55.0,30.16,ENE,67,3.2,-999.0,91,-99.99,,,0.00,Acu-Link.com,2013-01-09 12:15:00,
2013-01-09 07:30:00,57.6,55.6,30.16,ESE,112,3.2,-999.0,93,-99.99,,,0.00,Acu-Link.com,2013-01-09 12:30:00,
2013-01-09 07:45:00,57.7,56.0,30.17,NNE,22,4.2,-999.0,94,-99.99,,,0.00,Acu-Link.com,2013-01-09 12:45:00,
2013-01-09 08:01:00,58.3,56.6,30.17,NE,45,3.2,-999.0,94,-99.99,,,0.00,Acu-Link.com,2013-01-09 13:01:00,
2013-01-09 08:17:00,58.8,56.8,30.18,NNE,22,4.2,-999.0,93,-99.99,,,0.00,Acu-Link.com,2013-01-09 13:17:00,
2013-01-09 08:32:00,59.5,57.2,30.18,East,90,3.7,-999.0,92,-99.99,,,0.00,Acu-Link.com,2013-01-09 13:32:00,
2013-01-09 08:47:00,60.1,57.8,30.19,NNE,22,3.2,-999.0,92,-99.99,,,0.00,Acu-Link.com,2013-01-09 13:47:00,
2013-01-09 09:03:00,60.3,58.0,30.19,NNE,22,4.2,-999.0,92,-99.99,,,0.00,Acu-Link.com,2013-01-09 14:03:00,
2013-01-09 09:18:00,60.6,58.3,30.19,NE,45,2.2,-999.0,92,-99.99,,,0.00,Acu-Link.com,2013-01-09 14:18:00,
2013-01-09 09:33:00,61.0,58.4,30.20,NNE,22,2.7,-999.0,91,-99.99,,,0.00,Acu-Link.com,2013-01-09 14:33:00,
2013-01-09 09:49:00,61.9,58.9,30.20,NNW,337,2.2,-999.0,90,-99.99,,,0.00,Acu-Link.com,2013-01-09 14:49:00,
2013-01-09 10:04:00,62.4,59.4,30.21,North,0,3.2,-999.0,90,-99.99,,,0.00,Acu-Link.com,2013-01-09 15:04:00,
2013-01-09 10:19:00,63.1,60.4,30.21,NNE,22,2.7,-999.0,91,-99.99,,,0.00,Acu-Link.com,2013-01-09 15:19:00,
2013-01-09 10:35:00,64.9,61.9,30.20,NE,45,3.2,-999.0,90,-99.99,,,0.00,Acu-Link.com,2013-01-09 15:35:00,
2013-01-09 10:50:00,65.7,62.4,30.20,East,90,6.3,-999.0,89,-99.99,,,0.00,Acu-Link.com,2013-01-09 15:50:00,
2013-01-09 11:05:00,66.7,63.0,30.20,NE,45,4.7,-999.0,88,-99.99,,,0.00,Acu-Link.com,2013-01-09 16:05:00,
2013-01-09 11:20:00,67.5,63.8,30.19,NE,45,4.2,-999.0,88,-99.99,,,0.00,Acu-Link.com,2013-01-09 16:20:00,
2013-01-09 11:35:00,70.7,65.6,30.18,East,90,7.3,-999.0,84,-99.99,,,0.00,Acu-Link.com,2013-01-09 16:35:00,
2013-01-09 11:51:00,70.5,65.4,30.18,ENE,67,6.3,-999.0,84,-99.99,,,0.00,Acu-Link.com,2013-01-09 16:51:00,
2013-01-09 12:06:00,70.5,65.1,30.17,ENE,67,6.8,-999.0,83,-99.99,,,0.00,Acu-Link.com,2013-01-09 17:06:00,
2013-01-09 12:21:00,71.1,65.7,30.16,ESE,112,9.4,-999.0,83,-99.99,,,0.00,Acu-Link.com,2013-01-09 17:21:00,
2013-01-09 12:37:00,71.2,66.1,30.16,East,90,7.3,-999.0,84,-99.99,,,0.00,Acu-Link.com,2013-01-09 17:37:00,
2013-01-09 12:52:00,70.9,65.8,30.16,NE,45,9.4,-999.0,84,-99.99,,,0.00,Acu-Link.com,2013-01-09 17:52:00,
2013-01-09 13:07:00,70.9,66.2,30.16,ENE,67,6.3,-999.0,85,-99.99,,,0.00,Acu-Link.com,2013-01-09 18:07:00,
2013-01-09 13:22:00,71.6,66.5,30.15,NE,45,5.8,-999.0,84,-99.99,,,0.00,Acu-Link.com,2013-01-09 18:22:00,
2013-01-09 13:38:00,71.1,66.0,30.15,East,90,4.7,-999.0,84,-99.99,,,0.00,Acu-Link.com,2013-01-09 18:38:00,
2013-01-09 13:53:00,72.0,66.9,30.15,East,90,4.7,-999.0,84,-99.99,,,0.00,Acu-Link.com,2013-01-09 18:53:00,
2013-01-09 14:08:00,72.5,66.7,30.14,NE,45,6.3,-999.0,82,-99.99,,,0.00,Acu-Link.com,2013-01-09 19:08:00,
2013-01-09 14:23:00,72.7,67.2,30.14,NNE,22,3.7,-999.0,83,-99.99,,,0.00,Acu-Link.com,2013-01-09 19:23:00,
2013-01-09 14:39:00,73.0,66.8,30.14,NNE,22,5.3,-999.0,81,-99.99,,,0.00,Acu-Link.com,2013-01-09 19:39:00,
2013-01-09 14:54:00,72.9,66.7,30.15,NNE,22,4.2,-999.0,81,-99.99,,,0.00,Acu-Link.com,2013-01-09 19:54:00,
2013-01-09 15:09:00,73.6,67.0,30.15,East,90,4.7,-999.0,80,-99.99,,,0.00,Acu-Link.com,2013-01-09 20:09:00,
2013-01-09 15:24:00,72.5,66.3,30.15,ENE,67,3.7,-999.0,81,-99.99,,,0.00,Acu-Link.com,2013-01-09 20:24:00,
2013-01-09 15:40:00,72.5,66.3,30.15,NE,45,3.2,-999.0,81,-99.99,,,0.00,Acu-Link.com,2013-01-09 20:40:00,
2013-01-09 15:55:00,72.5,66.7,30.15,East,90,3.2,-999.0,82,-99.99,,,0.00,Acu-Link.com,2013-01-09 20:55:00,
2013-01-09 16:10:00,72.1,66.3,30.15,East,90,2.7,-999.0,82,-99.99,,,0.00,Acu-Link.com,2013-01-09 21:10:00,
2013-01-09 16:26:00,71.8,66.3,30.15,ESE,112,5.3,-999.0,83,-99.99,,,0.00,Acu-Link.com,2013-01-09 21:26:00,
2013-01-09 16:41:00,69.1,64.4,30.16,ESE,112,4.7,-999.0,85,-99.99,,,0.00,Acu-Link.com,2013-01-09 21:41:00,
2013-01-09 16:56:00,68.0,63.6,30.17,ESE,112,4.2,-999.0,86,-99.99,,,0.00,Acu-Link.com,2013-01-09 21:56:00,
2013-01-09 17:12:00,66.9,62.9,30.17,ESE,112,2.7,-999.0,87,-99.99,,,0.00,Acu-Link.com,2013-01-09 22:12:00,
2013-01-09 17:27:00,66.0,62.3,30.17,East,90,2.7,-999.0,88,-99.99,,,0.00,Acu-Link.com,2013-01-09 22:27:00,
2013-01-09 17:42:00,65.1,61.5,30.18,ESE,112,3.2,-999.0,88,-99.99,,,0.00,Acu-Link.com,2013-01-09 22:42:00,
2013-01-09 17:57:00,64.2,60.6,30.17,SE,135,3.7,-999.0,88,-99.99,,,0.00,Acu-Link.com,2013-01-09 22:57:00,
2013-01-09 18:13:00,63.5,59.9,30.18,ESE,112,3.7,-999.0,88,-99.99,,,0.00,Acu-Link.com,2013-01-09 23:13:00,
2013-01-09 18:28:00,62.8,59.2,30.18,ESE,112,4.2,-999.0,88,-99.99,,,0.00,Acu-Link.com,2013-01-09 23:28:00,
2013-01-09 18:43:00,62.2,58.6,30.18,East,90,3.2,-999.0,88,-99.99,,,0.00,Acu-Link.com,2013-01-09 23:43:00,
2013-01-09 18:59:00,62.6,59.0,30.19,East,90,5.3,-999.0,88,-99.99,,,0.00,Acu-Link.com,2013-01-09 23:59:00,
2013-01-09 19:14:00,62.6,59.0,30.19,ESE,112,4.2,-999.0,88,-99.99,,,0.00,Acu-Link.com,2013-01-10 00:14:00,
2013-01-09 19:29:00,62.4,58.8,30.19,ESE,112,3.7,-999.0,88,-99.99,,,0.00,Acu-Link.com,2013-01-10 00:29:00,
2013-01-09 19:45:00,62.4,58.8,30.19,East,90,2.2,-999.0,88,-99.99,,,0.00,Acu-Link.com,2013-01-10 00:45:00,
2013-01-09 20:00:00,62.4,58.8,30.19,ESE,112,3.2,-999.0,88,-99.99,,,0.00,Acu-Link.com,2013-01-10 01:00:00,
2013-01-09 20:15:00,62.4,59.1,30.20,ESE,112,2.7,-999.0,89,-99.99,,,0.00,Acu-Link.com,2013-01-10 01:15:00,
2013-01-09 20:31:00,61.9,58.9,30.19,ESE,112,2.7,-999.0,90,-99.99,,,0.00,Acu-Link.com,2013-01-10 01:31:00,
2013-01-09 20:46:00,61.9,59.2,30.18,ESE,112,4.2,-999.0,91,-99.99,,,0.00,Acu-Link.com,2013-01-10 01:46:00,
2013-01-09 21:01:00,62.2,59.8,30.18,East,90,4.2,-999.0,92,-99.99,,,0.00,Acu-Link.com,2013-01-10 02:01:00,
2013-01-09 21:16:00,61.9,59.9,30.18,ESE,112,2.7,-999.0,93,-99.99,,,0.00,Acu-Link.com,2013-01-10 02:16:00,
2013-01-09 21:32:00,61.2,59.5,30.19,ESE,112,2.7,-999.0,94,-99.99,,,0.00,Acu-Link.com,2013-01-10 02:32:00,
2013-01-09 21:47:00,61.2,60.0,30.19,East,90,3.2,-999.0,96,-99.99,,,0.00,Acu-Link.com,2013-01-10 02:47:00,
2013-01-09 22:02:00,61.0,60.1,30.19,East,90,3.2,-999.0,97,-99.99,,,0.00,Acu-Link.com,2013-01-10 03:02:00,
2013-01-09 22:17:00,60.6,60.0,30.18,East,90,2.7,-999.0,98,-99.99,,,0.00,Acu-Link.com,2013-01-10 03:17:00,
2013-01-09 22:33:00,60.1,59.8,30.19,ENE,67,1.7,-999.0,99,-99.99,,,0.00,Acu-Link.com,2013-01-10 03:33:00,
2013-01-09 22:48:00,59.4,59.1,30.19,ENE,67,0.0,-999.0,99,-99.99,,,0.00,Acu-Link.com,2013-01-10 03:48:00,
2013-01-09 23:03:00,58.5,58.2,30.19,ESE,112,0.0,-999.0,99,-99.99,,,0.00,Acu-Link.com,2013-01-10 04:03:00,
2013-01-09 23:19:00,57.6,57.3,30.19,ESE,112,0.0,-999.0,99,-99.99,,,0.00,Acu-Link.com,2013-01-10 04:19:00,
2013-01-09 23:34:00,57.0,56.7,30.18,ESE,112,0.0,-999.0,99,-99.99,,,0.00,Acu-Link.com,2013-01-10 04:34:00,
2013-01-09 23:49:00,56.5,56.2,30.18,ESE,112,0.0,-999.0,99,-99.99,,,0.00,Acu-Link.com,2013-01-10 04:49:00,